createdAt,value
2022-12-22T00:02:09.990Z,94.43
2022-12-22T00:04:56.020Z,95.45
2022-12-22T00:07:41.815Z,95.63
2022-12-22T00:10:28.190Z,98.72
2022-12-22T00:13:14.000Z,95.72
2022-12-22T00:15:59.759Z,100.45
2022-12-22T00:18:46.172Z,94.85
2022-12-22T00:21:32.500Z,92.70
2022-12-22T00:24:18.853Z,85.95
2022-12-22T00:27:05.068Z,110.03
2022-12-22T00:29:56.988Z,86.60
2022-12-22T00:32:45.974Z,84.10
2022-12-22T00:35:33.455Z,89.53
2022-12-22T00:38:19.309Z,87.95
2022-12-22T00:41:05.091Z,89.53
2022-12-22T00:43:50.668Z,77.68
2022-12-22T00:46:37.673Z,86.78
2022-12-22T00:49:23.536Z,90.10
2022-12-22T00:52:09.630Z,91.50
2022-12-22T00:54:55.794Z,81.85
2022-12-22T00:57:46.401Z,87.55
2022-12-22T01:00:37.335Z,90.70
2022-12-22T01:03:23.721Z,89.05
2022-12-22T01:06:09.744Z,83.80
2022-12-22T01:08:55.594Z,73.50
2022-12-22T01:11:41.447Z,84.13
2022-12-22T01:14:30.774Z,76.40
2022-12-22T01:17:16.740Z,74.28
2022-12-22T01:20:02.601Z,73.78
2022-12-22T01:22:48.729Z,69.95
2022-12-22T01:25:36.435Z,72.30
2022-12-22T01:28:23.437Z,91.78
2022-12-22T01:31:09.808Z,78.68
2022-12-22T01:33:55.582Z,72.38
2022-12-22T01:36:41.129Z,71.78
2022-12-22T01:39:27.263Z,77.53
2022-12-22T01:42:13.003Z,80.30
2022-12-22T01:44:58.608Z,70.03
2022-12-22T01:47:47.224Z,69.95
2022-12-22T01:50:42.676Z,77.30
2022-12-22T01:53:34.000Z,78.15
2022-12-22T01:56:20.700Z,79.68
2022-12-22T01:59:11.621Z,68.80
2022-12-22T02:01:59.290Z,79.07
2022-12-22T02:04:49.837Z,80.95
2022-12-22T02:07:47.138Z,71.90
2022-12-22T02:10:54.148Z,76.03
2022-12-22T02:13:54.162Z,79.72
2022-12-22T02:20:08.471Z,67.82
2022-12-22T02:23:12.467Z,68.95
2022-12-22T02:26:10.401Z,70.60
2022-12-22T02:28:56.477Z,70.50
2022-12-22T02:31:42.967Z,72.20
2022-12-22T02:34:37.738Z,73.50
2022-12-22T02:37:33.743Z,72.32
2022-12-22T02:40:22.546Z,63.58
2022-12-22T02:43:53.091Z,72.65
2022-12-22T02:46:56.580Z,70.05
2022-12-22T02:49:53.866Z,82.85
2022-12-22T02:52:53.521Z,77.72
2022-12-22T02:55:39.889Z,84.85
2022-12-22T02:58:26.156Z,76.78
2022-12-22T03:01:12.178Z,80.90
2022-12-22T03:03:58.047Z,81.15
2022-12-22T03:06:43.842Z,81.10
2022-12-22T03:09:29.895Z,84.82
2022-12-22T03:12:15.945Z,77.35
2022-12-22T03:15:01.763Z,82.95
2022-12-22T03:17:47.577Z,85.35
2022-12-22T03:20:33.714Z,86.35
2022-12-22T03:23:23.388Z,90.43
2022-12-22T03:25:54.062Z,80.93
2022-12-22T03:28:23.939Z,73.55
2022-12-22T03:31:04.331Z,83.35
2022-12-22T03:33:32.882Z,88.38
2022-12-22T03:36:00.756Z,93.10
2022-12-22T03:38:28.127Z,93.60
2022-12-22T03:40:55.556Z,101.57
2022-12-22T03:43:41.350Z,85.93
2022-12-22T03:46:32.206Z,87.03
2022-12-22T03:49:10.454Z,89.72
2022-12-22T03:51:49.046Z,84.53
2022-12-22T03:54:18.696Z,84.35
2022-12-22T03:56:46.949Z,88.60
2022-12-22T03:59:15.309Z,77.68
2022-12-22T04:01:52.343Z,87.90
2022-12-22T04:04:21.692Z,82.03
2022-12-22T04:06:49.450Z,79.60
2022-12-22T04:09:17.034Z,93.97
2022-12-22T04:12:03.226Z,85.38
2022-12-22T04:14:34.223Z,97.85
2022-12-22T04:17:03.661Z,96.63
2022-12-22T04:19:31.310Z,89.53
2022-12-22T04:21:58.996Z,90.13
2022-12-22T04:24:26.418Z,91.50
2022-12-22T04:26:53.912Z,88.43
2022-12-22T04:29:21.201Z,97.65
2022-12-22T04:31:48.592Z,94.35
2022-12-22T04:34:15.910Z,86.72
2022-12-22T04:36:43.264Z,87.72
2022-12-22T04:39:10.513Z,88.35
2022-12-22T04:41:37.704Z,99.68
2022-12-22T04:44:05.011Z,93.70
2022-12-22T04:46:33.469Z,79.35
2022-12-22T04:49:00.958Z,86.68
2022-12-22T04:51:28.802Z,85.38
2022-12-22T04:53:56.301Z,90.03
2022-12-22T04:56:23.553Z,89.40
2022-12-22T04:58:50.827Z,85.38
2022-12-22T05:01:19.504Z,82.68
2022-12-22T05:03:47.287Z,84.45
2022-12-22T05:06:15.077Z,90.18
2022-12-22T05:08:42.337Z,84.63
2022-12-22T05:11:10.252Z,77.45
2022-12-22T05:13:38.065Z,92.20
2022-12-22T05:16:11.625Z,84.22
2022-12-22T05:18:39.922Z,91.78
2022-12-22T05:21:10.991Z,78.78
2022-12-22T05:23:38.471Z,76.75
2022-12-22T05:26:06.140Z,86.20
2022-12-22T05:28:33.811Z,86.70
2022-12-22T05:31:14.844Z,80.82
2022-12-22T05:33:42.183Z,76.90
2022-12-22T05:36:09.559Z,81.30
2022-12-22T05:38:37.009Z,85.22
2022-12-22T05:41:05.018Z,101.05
2022-12-22T05:43:33.379Z,88.43
2022-12-22T05:46:05.699Z,90.68
2022-12-22T05:48:38.114Z,86.25
2022-12-22T05:51:08.441Z,82.47
2022-12-22T05:53:36.715Z,95.32
2022-12-22T05:56:04.374Z,80.75
2022-12-22T05:58:31.610Z,88.50
2022-12-22T06:01:00.012Z,96.35
2022-12-22T06:03:29.040Z,98.43
2022-12-22T06:05:57.228Z,114.82
2022-12-22T06:08:25.222Z,112.30
2022-12-22T06:10:55.185Z,111.32
2022-12-22T06:15:49.754Z,109.95
2022-12-22T06:18:17.245Z,100.88
2022-12-22T06:20:47.802Z,111.82
2022-12-22T06:23:15.116Z,105.20
2022-12-22T06:25:42.444Z,114.85
2022-12-22T06:28:09.698Z,100.65
2022-12-22T06:30:36.987Z,102.93
2022-12-22T06:33:04.286Z,119.70
2022-12-22T06:35:31.593Z,122.38
2022-12-22T06:37:58.804Z,123.90
2022-12-22T06:40:26.126Z,136.00
2022-12-22T06:43:11.276Z,108.25
2022-12-22T06:45:43.452Z,117.03
2022-12-22T06:48:12.412Z,120.18
2022-12-22T06:50:40.095Z,129.53
2022-12-22T06:53:08.743Z,123.15
2022-12-22T06:55:37.051Z,125.72
2022-12-22T06:58:05.393Z,124.32
2022-12-22T07:00:33.749Z,130.23
2022-12-22T07:03:01.402Z,117.07
2022-12-22T07:05:31.785Z,113.53
2022-12-22T07:08:05.774Z,112.22
2022-12-22T07:10:54.266Z,125.68
2022-12-22T07:13:21.685Z,107.95
2022-12-22T07:15:55.569Z,131.85
2022-12-22T07:18:28.408Z,123.57
2022-12-22T07:20:55.781Z,121.68
2022-12-22T07:23:23.261Z,119.65
2022-12-22T07:25:50.491Z,116.13
2022-12-22T07:28:20.956Z,110.82
2022-12-22T07:30:53.194Z,116.85
2022-12-22T07:33:21.343Z,121.32
2022-12-22T07:35:48.608Z,115.00
2022-12-22T07:38:15.836Z,122.18
2022-12-22T07:40:44.340Z,137.77
2022-12-22T07:43:14.065Z,125.70
2022-12-22T07:45:41.257Z,132.43
2022-12-22T07:48:29.391Z,142.85
2022-12-22T07:51:03.224Z,151.43
2022-12-22T07:53:30.921Z,152.63
2022-12-22T07:56:02.372Z,159.75
2022-12-22T07:58:29.705Z,169.05
2022-12-22T08:00:58.904Z,180.50
2022-12-22T08:03:26.320Z,179.60
2022-12-22T08:05:53.730Z,164.20
2022-12-22T08:08:21.132Z,160.18
2022-12-22T08:10:48.326Z,158.98
2022-12-22T08:13:15.785Z,158.20
2022-12-22T08:15:43.155Z,158.73
2022-12-22T08:18:10.414Z,166.32
2022-12-22T08:20:37.696Z,174.13
2022-12-22T08:23:05.025Z,168.40
2022-12-22T08:25:34.081Z,177.55
2022-12-22T08:28:02.132Z,183.53
2022-12-22T08:30:29.796Z,179.23
2022-12-22T08:32:57.041Z,166.02
2022-12-22T08:35:24.359Z,143.50
2022-12-22T08:37:52.722Z,161.98
2022-12-22T08:40:24.165Z,140.23
2022-12-22T08:42:56.656Z,112.85
2022-12-22T08:45:24.004Z,105.80
2022-12-22T08:47:51.216Z,117.97
2022-12-22T08:50:18.613Z,105.97
2022-12-22T08:52:45.976Z,104.45
2022-12-22T08:55:13.211Z,101.15
2022-12-22T08:57:40.479Z,101.07
2022-12-22T09:00:09.682Z,104.10
2022-12-22T09:02:37.136Z,98.47
2022-12-22T09:05:05.016Z,109.57
2022-12-22T09:07:32.212Z,107.00
2022-12-22T09:09:59.589Z,107.82
2022-12-22T09:12:26.860Z,116.75
2022-12-22T09:14:54.079Z,119.05
2022-12-22T09:17:21.404Z,117.03
2022-12-22T09:19:48.633Z,114.80
2022-12-22T09:22:18.332Z,130.50
2022-12-22T09:24:49.147Z,126.45
2022-12-22T09:27:16.474Z,120.78
2022-12-22T09:29:43.755Z,115.57
2022-12-22T09:32:11.115Z,109.32
2022-12-22T09:34:38.480Z,105.75
2022-12-22T09:37:06.602Z,125.68
2022-12-22T09:39:33.810Z,139.93
2022-12-22T09:42:01.364Z,118.22
2022-12-22T09:58:58.354Z,115.07
2022-12-22T10:01:53.725Z,119.97
2022-12-22T10:04:27.118Z,104.60
2022-12-22T10:06:58.745Z,93.43
2022-12-22T10:09:49.746Z,98.50
2022-12-22T10:12:22.288Z,96.63
2022-12-22T10:14:51.981Z,97.75
2022-12-22T10:17:29.239Z,91.82
2022-12-22T10:20:14.859Z,86.45
2022-12-22T10:22:49.935Z,84.65
2022-12-22T10:25:39.740Z,94.25
2022-12-22T10:28:22.267Z,93.22
2022-12-22T10:30:49.903Z,92.70
2022-12-22T10:33:18.950Z,87.18
2022-12-22T10:35:48.395Z,92.20
2022-12-22T10:38:21.212Z,99.10
2022-12-22T10:41:02.061Z,97.53
2022-12-22T10:43:34.505Z,104.45
2022-12-22T10:46:03.883Z,95.32
2022-12-22T10:48:36.014Z,93.22
2022-12-22T10:51:08.053Z,90.93
2022-12-22T10:53:44.751Z,91.80
2022-12-22T10:56:30.516Z,89.50
2022-12-22T10:59:20.661Z,99.47
2022-12-22T11:01:49.312Z,91.35
2022-12-22T11:04:16.669Z,90.32
2022-12-22T11:06:44.756Z,95.53
2022-12-22T11:09:32.341Z,93.68
2022-12-22T11:12:22.039Z,99.05
2022-12-22T11:15:26.491Z,92.03
2022-12-22T11:18:10.686Z,91.55
2022-12-22T11:20:47.995Z,93.05
2022-12-22T11:23:22.575Z,91.40
2022-12-22T11:26:08.514Z,110.00
2022-12-22T11:28:54.814Z,97.85
2022-12-22T11:31:55.489Z,110.65
2022-12-22T11:34:53.869Z,115.38
2022-12-22T11:37:45.729Z,120.28
2022-12-22T11:40:17.089Z,131.00
2022-12-22T11:43:02.173Z,128.60
2022-12-22T11:45:47.495Z,128.18
2022-12-22T11:48:36.692Z,140.30
2022-12-22T11:51:14.381Z,144.00
2022-12-22T11:54:17.681Z,141.00
2022-12-22T11:57:07.821Z,116.97
2022-12-22T11:59:43.196Z,108.53
2022-12-22T12:02:19.702Z,110.57
2022-12-22T12:05:11.207Z,113.85
2022-12-22T12:07:43.066Z,135.48
2022-12-22T12:10:25.604Z,126.25
2022-12-22T12:13:16.894Z,124.10
2022-12-22T12:15:55.561Z,113.13
2022-12-22T12:18:38.050Z,119.05
2022-12-22T12:21:23.518Z,114.70
2022-12-22T12:24:00.452Z,135.90
2022-12-22T12:26:50.742Z,104.63
2022-12-22T12:29:25.826Z,114.00
2022-12-22T12:32:21.565Z,128.93
2022-12-22T12:34:54.552Z,111.47
2022-12-22T12:37:29.138Z,100.47
2022-12-22T12:40:18.014Z,96.38
2022-12-22T12:42:47.962Z,93.43
2022-12-22T12:48:23.599Z,88.43
2022-12-22T12:50:51.764Z,97.03
2022-12-22T12:53:24.312Z,93.13
2022-12-22T12:55:53.021Z,99.65
2022-12-22T12:58:35.725Z,97.45
2022-12-22T13:01:04.994Z,97.15
2022-12-22T13:06:50.250Z,93.28
2022-12-22T13:12:48.935Z,92.05
2022-12-22T13:15:36.334Z,86.60
2022-12-22T13:18:28.612Z,82.15
2022-12-22T13:21:42.411Z,103.57
2022-12-22T13:24:25.167Z,89.75
2022-12-22T13:26:55.766Z,100.43
2022-12-22T13:29:29.231Z,90.43
2022-12-22T13:32:15.919Z,93.43
2022-12-22T13:35:35.604Z,94.47
2022-12-22T13:38:04.548Z,96.97
2022-12-22T13:40:40.177Z,98.22
2022-12-22T13:43:16.523Z,109.38
2022-12-22T13:46:02.215Z,87.25
2022-12-22T13:48:46.608Z,84.82
2022-12-22T13:51:19.783Z,98.38
2022-12-22T13:54:26.268Z,96.90
2022-12-22T13:56:59.334Z,85.00
2022-12-22T13:59:39.365Z,82.63
2022-12-22T14:02:09.625Z,87.78
2022-12-22T14:04:39.297Z,90.88
2022-12-22T14:07:24.843Z,92.10
2022-12-22T14:09:56.360Z,91.85
2022-12-22T14:12:26.577Z,93.50
2022-12-22T14:14:56.653Z,94.45
2022-12-22T14:17:27.297Z,98.45
2022-12-22T14:19:57.374Z,103.28
2022-12-22T14:22:35.271Z,101.10
2022-12-22T14:25:15.314Z,102.90
2022-12-22T14:30:26.476Z,95.28
2022-12-22T14:32:56.249Z,84.38
2022-12-22T14:35:28.157Z,83.53
2022-12-22T14:38:23.819Z,86.75
2022-12-22T14:40:57.167Z,83.43
2022-12-22T14:43:28.756Z,94.30
2022-12-22T14:46:08.345Z,88.30
2022-12-22T14:48:41.066Z,89.85
2022-12-22T14:51:08.408Z,100.60
2022-12-22T14:53:54.741Z,111.38
2022-12-22T14:56:22.941Z,129.65
2022-12-22T14:58:50.874Z,127.97
2022-12-22T15:01:26.749Z,121.55
2022-12-22T15:03:59.307Z,115.43
2022-12-22T15:06:26.600Z,114.82
2022-12-22T15:09:11.563Z,116.20
2022-12-22T15:11:46.322Z,120.78
2022-12-22T15:14:17.206Z,124.10
2022-12-22T15:16:45.507Z,124.45
2022-12-22T15:19:15.325Z,128.80
2022-12-22T15:21:42.588Z,133.93
2022-12-22T15:24:18.112Z,128.38
2022-12-22T15:26:46.152Z,132.90
2022-12-22T15:29:13.624Z,150.50
2022-12-22T15:31:42.534Z,204.50
2022-12-22T15:34:27.129Z,178.45
2022-12-22T15:36:54.631Z,177.82
2022-12-22T15:39:23.358Z,243.00
2022-12-22T15:41:51.036Z,244.50
2022-12-22T15:44:18.493Z,241.68
2022-12-22T15:46:54.584Z,236.20
2022-12-22T15:49:25.581Z,223.73
2022-12-22T15:52:00.618Z,222.98
2022-12-22T15:54:29.543Z,228.75
2022-12-22T15:56:57.007Z,237.60
2022-12-22T15:59:27.093Z,233.25
2022-12-22T16:02:00.489Z,224.68
2022-12-22T16:04:29.259Z,206.25
2022-12-22T16:06:57.170Z,181.57
2022-12-22T16:09:29.071Z,183.13
2022-12-22T16:11:57.141Z,192.15
2022-12-22T16:14:24.662Z,160.35
2022-12-22T16:16:51.957Z,135.25
2022-12-22T16:19:19.589Z,121.57
2022-12-22T16:21:51.328Z,151.75
2022-12-22T16:24:33.788Z,153.07
2022-12-22T16:27:02.438Z,183.00
2022-12-22T16:29:30.212Z,163.07
2022-12-22T16:32:17.572Z,157.05
2022-12-22T16:34:45.831Z,149.23
2022-12-22T16:37:13.099Z,143.77
2022-12-22T16:39:40.980Z,148.57
2022-12-22T16:45:05.641Z,132.02
2022-12-22T16:47:36.809Z,170.43
2022-12-22T16:50:16.042Z,140.90
2022-12-22T16:52:43.288Z,160.65
2022-12-22T16:55:17.555Z,135.45
2022-12-22T16:57:44.977Z,124.22
2022-12-22T17:00:21.712Z,136.55
2022-12-22T17:02:55.925Z,143.48
2022-12-22T17:05:27.816Z,140.35
2022-12-22T17:07:57.577Z,134.40
2022-12-22T17:10:25.432Z,132.27
2022-12-22T17:12:56.053Z,116.95
2022-12-22T17:15:24.922Z,117.78
2022-12-22T17:17:53.109Z,109.10
2022-12-22T17:20:23.239Z,107.82
2022-12-22T17:23:02.321Z,131.07
2022-12-22T17:25:31.242Z,140.10
2022-12-22T17:28:02.058Z,135.32
2022-12-22T17:30:29.321Z,136.70
2022-12-22T17:32:56.585Z,123.22
2022-12-22T17:35:26.094Z,113.97
2022-12-22T17:37:54.373Z,113.53
2022-12-22T17:40:28.684Z,109.18
2022-12-22T17:42:58.289Z,105.57
2022-12-22T17:45:25.977Z,105.85
2022-12-22T17:47:53.324Z,105.22
2022-12-22T17:50:23.406Z,98.03
2022-12-22T17:52:50.786Z,103.63
2022-12-22T17:56:01.259Z,113.43
2022-12-22T17:58:17.147Z,102.75
2022-12-22T18:00:44.757Z,112.40
2022-12-22T18:03:15.617Z,111.88
2022-12-22T18:05:45.994Z,108.60
2022-12-22T18:08:18.025Z,117.57
2022-12-22T18:10:46.232Z,150.70
2022-12-22T18:13:20.203Z,126.43
2022-12-22T18:15:47.614Z,124.28
2022-12-22T18:18:16.398Z,174.57
2022-12-22T18:20:44.728Z,155.23
2022-12-22T18:23:33.504Z,167.27
2022-12-22T18:26:01.241Z,131.98
2022-12-22T18:28:28.478Z,126.82
2022-12-22T18:30:55.731Z,134.98
2022-12-22T18:33:23.039Z,132.45
2022-12-22T18:35:50.659Z,133.13
2022-12-22T18:38:30.456Z,150.93
2022-12-22T18:40:58.029Z,159.40
2022-12-22T18:43:25.395Z,168.60
2022-12-22T18:45:52.652Z,170.20
2022-12-22T18:48:19.941Z,152.10
2022-12-22T18:50:48.777Z,129.02
2022-12-22T18:53:26.661Z,129.73
2022-12-22T18:55:54.522Z,129.60
2022-12-22T18:58:22.313Z,122.50
2022-12-22T19:00:50.712Z,102.03
2022-12-22T19:03:24.560Z,108.13
2022-12-22T19:05:52.283Z,111.50
2022-12-22T19:08:22.346Z,112.45
2022-12-22T19:11:03.104Z,134.23
2022-12-22T19:13:34.376Z,150.98
2022-12-22T19:16:02.201Z,150.55
2022-12-22T19:18:29.520Z,129.55
2022-12-22T19:20:57.305Z,133.65
2022-12-22T19:23:25.804Z,125.32
2022-12-22T19:25:56.112Z,126.53
2022-12-22T19:28:42.164Z,140.60
2022-12-22T19:31:16.300Z,135.18
2022-12-22T19:33:44.212Z,143.90
2022-12-22T19:36:17.758Z,151.98
2022-12-22T19:38:49.932Z,173.25
2022-12-22T19:41:28.585Z,145.55
2022-12-22T19:43:56.232Z,172.77
2022-12-22T19:46:26.013Z,168.77
2022-12-22T19:48:53.336Z,134.05
2022-12-22T19:51:20.619Z,145.23
2022-12-22T19:53:47.836Z,148.30
2022-12-22T19:56:27.687Z,166.48
2022-12-22T20:01:23.076Z,167.25
2022-12-22T20:03:50.512Z,153.70
2022-12-22T20:06:17.892Z,161.98
2022-12-22T20:08:45.210Z,141.68
2022-12-22T20:11:15.099Z,169.07
2022-12-22T20:16:14.291Z,186.82
2022-12-22T20:18:42.789Z,166.63
2022-12-22T20:21:29.491Z,152.38
2022-12-22T20:24:00.151Z,167.75
2022-12-22T20:26:27.688Z,154.63
2022-12-22T20:28:55.001Z,166.32
2022-12-22T20:31:24.582Z,168.45
2022-12-22T20:33:54.847Z,166.15
2022-12-22T20:36:28.706Z,186.35
2022-12-22T20:38:57.377Z,189.20
2022-12-22T20:41:25.650Z,171.77
2022-12-22T20:43:53.836Z,182.07
2022-12-22T20:46:26.037Z,172.63
2022-12-22T20:48:59.440Z,181.80
2022-12-22T20:51:30.528Z,168.85
2022-12-22T20:53:58.721Z,178.07
2022-12-22T20:56:36.325Z,184.90
2022-12-22T20:59:19.218Z,186.75
2022-12-22T21:01:47.991Z,202.05
2022-12-22T21:04:15.985Z,200.20
2022-12-22T21:06:52.918Z,210.93
2022-12-22T21:09:20.783Z,226.73
2022-12-22T21:11:48.616Z,236.48
2022-12-22T21:14:16.377Z,259.83
2022-12-22T21:16:43.918Z,209.57
2022-12-22T21:19:18.854Z,219.40
2022-12-22T21:21:46.969Z,219.98
2022-12-22T21:24:14.267Z,226.98
2022-12-22T21:26:49.716Z,236.23
2022-12-22T21:29:21.482Z,265.52
2022-12-22T21:31:48.916Z,297.55
2022-12-22T21:34:16.168Z,244.88
2022-12-22T21:36:45.529Z,241.55
2022-12-22T21:39:31.388Z,279.92
2022-12-22T21:42:01.773Z,311.58
2022-12-22T21:44:31.225Z,376.42
2022-12-22T21:46:58.806Z,475.05
2022-12-22T21:49:31.190Z,439.92
2022-12-22T21:51:58.693Z,427.67
2022-12-22T21:54:26.370Z,358.15
2022-12-22T21:56:54.133Z,331.60
2022-12-22T21:59:21.864Z,298.45
2022-12-22T22:01:52.596Z,352.48
2022-12-22T22:04:20.640Z,292.02
2022-12-22T22:06:48.216Z,283.13
2022-12-22T22:09:15.484Z,309.80
2022-12-22T22:12:01.614Z,291.17
2022-12-22T22:14:28.868Z,307.80
2022-12-22T22:16:56.071Z,301.42
2022-12-22T22:19:23.305Z,340.15
2022-12-22T22:21:50.502Z,350.00
2022-12-22T22:24:17.759Z,313.45
2022-12-22T22:26:46.377Z,283.83
2022-12-22T22:29:13.611Z,318.42
2022-12-22T22:31:41.440Z,276.77
2022-12-22T22:34:09.264Z,300.77
2022-12-22T22:36:36.553Z,283.13
2022-12-22T22:39:03.894Z,242.32
2022-12-22T22:41:37.667Z,257.08
2022-12-22T22:44:08.308Z,228.77
2022-12-22T22:46:35.750Z,222.35
2022-12-22T22:49:03.084Z,226.90
2022-12-22T22:51:31.290Z,253.77
2022-12-22T22:53:58.550Z,217.82
2022-12-22T22:56:25.877Z,220.90
2022-12-22T22:58:53.089Z,237.80
2022-12-22T23:01:20.382Z,250.73
2022-12-22T23:03:47.763Z,264.05
2022-12-22T23:06:15.208Z,268.35
2022-12-22T23:08:42.446Z,228.63
2022-12-22T23:11:14.605Z,260.30
2022-12-22T23:13:42.421Z,247.95
2022-12-22T23:16:10.201Z,306.02
2022-12-22T23:18:38.129Z,314.30
2022-12-22T23:21:07.545Z,311.52
2022-12-22T23:23:35.710Z,395.60
2022-12-22T23:26:03.219Z,303.75
2022-12-22T23:28:30.577Z,242.30
2022-12-22T23:30:58.303Z,234.70
2022-12-22T23:33:25.640Z,216.15
2022-12-22T23:35:53.631Z,194.95
2022-12-22T23:38:21.154Z,222.38
2022-12-22T23:40:54.160Z,268.05
2022-12-22T23:43:22.416Z,205.38
2022-12-22T23:45:49.748Z,210.88
2022-12-22T23:48:17.061Z,205.85
2022-12-22T23:50:48.285Z,202.20
2022-12-22T23:53:16.904Z,242.48
2022-12-22T23:55:45.252Z,221.55
2022-12-22T23:58:12.828Z,232.32
